Terminal Aerodrome Forecast
Issued by NWS

Home | Current Version | Previous Version | Text Only | Print | Product List | Glossary On
Versions: 1 2 3 4 5 6 7 8 9 10 11 12 13 14
553
FTUS46 KSEW 241120
TAFBLI
TAF
KBLI 241120Z 2412/2512 VRB03KT P6SM FEW007
     FM241600 20007KT P6SM SKC
     FM250800 17005KT P6SM BKN150=

USA.gov is the U.S. government's official web portal to all federal, state and local government web resources and services.